sensor_id;sensor_type;location;lat;lon;timestamp;P1;durP1;ratioP1;P2;durP2;ratioP2
32705;SDS011;19094;50.972;3.538;2022-10-30T18:02:46;16.77;;;9.70;;
32705;SDS011;19094;50.972;3.538;2022-10-30T18:05:13;17.33;;;8.20;;
32705;SDS011;19094;50.972;3.538;2022-10-30T18:07:41;16.80;;;8.95;;
32705;SDS011;19094;50.972;3.538;2022-10-30T18:10:07;18.17;;;8.45;;
32705;SDS011;19094;50.972;3.538;2022-10-30T18:12:33;18.25;;;8.20;;
32705;SDS011;19094;50.972;3.538;2022-10-30T18:14:59;16.05;;;6.80;;
32705;SDS011;19094;50.972;3.538;2022-10-30T18:17:35;12.00;;;6.20;;
32705;SDS011;19094;50.972;3.538;2022-10-30T18:20:01;14.02;;;5.70;;
32705;SDS011;19094;50.972;3.538;2022-10-30T18:22:27;12.05;;;5.75;;
32705;SDS011;19094;50.972;3.538;2022-10-30T18:24:52;12.00;;;5.32;;
32705;SDS011;19094;50.972;3.538;2022-10-30T18:27:18;12.52;;;5.88;;
32705;SDS011;19094;50.972;3.538;2022-10-30T18:29:44;20.85;;;10.10;;
32705;SDS011;19094;50.972;3.538;2022-10-30T18:32:09;23.77;;;11.75;;
32705;SDS011;19094;50.972;3.538;2022-10-30T18:34:35;24.27;;;10.32;;
32705;SDS011;19094;50.972;3.538;2022-10-30T18:37:00;23.17;;;12.35;;
32705;SDS011;19094;50.972;3.538;2022-10-30T18:39:26;16.00;;;7.10;;
32705;SDS011;19094;50.972;3.538;2022-10-30T18:41:51;14.40;;;6.93;;
32705;SDS011;19094;50.972;3.538;2022-10-30T18:44:17;15.63;;;7.65;;
32705;SDS011;19094;50.972;3.538;2022-10-30T18:46:43;15.40;;;7.80;;
32705;SDS011;19094;50.972;3.538;2022-10-30T18:49:10;18.50;;;8.52;;
32705;SDS011;19094;50.972;3.538;2022-10-30T18:51:35;15.50;;;8.68;;
32705;SDS011;19094;50.972;3.538;2022-10-30T18:54:01;17.42;;;9.05;;
32705;SDS011;19094;50.972;3.538;2022-10-30T18:56:30;14.60;;;6.65;;
32705;SDS011;19094;50.972;3.538;2022-10-30T18:58:58;12.95;;;6.07;;
32705;SDS011;19094;50.972;3.538;2022-10-30T19:01:24;16.48;;;6.93;;
32705;SDS011;19094;50.972;3.538;2022-10-30T19:03:50;13.43;;;7.88;;
32705;SDS011;19094;50.972;3.538;2022-10-30T19:06:17;13.68;;;6.63;;
32705;SDS011;19094;50.972;3.538;2022-10-30T19:08:44;11.57;;;6.05;;
32705;SDS011;19094;50.972;3.538;2022-10-30T19:11:14;11.88;;;6.05;;
32705;SDS011;19094;50.972;3.538;2022-10-30T19:13:41;8.20;;;4.70;;
32705;SDS011;19094;50.972;3.538;2022-10-30T19:16:13;10.40;;;5.10;;
32705;SDS011;19094;50.972;3.538;2022-10-30T19:18:41;9.60;;;5.05;;
32705;SDS011;19094;50.972;3.538;2022-10-30T19:21:15;9.75;;;4.57;;
32705;SDS011;19094;50.972;3.538;2022-10-30T19:23:42;10.05;;;5.15;;
32705;SDS011;19094;50.972;3.538;2022-10-30T19:26:08;11.00;;;7.50;;
32705;SDS011;19094;50.972;3.538;2022-10-30T19:28:34;12.02;;;5.90;;
32705;SDS011;19094;50.972;3.538;2022-10-30T19:30:59;10.82;;;4.75;;
32705;SDS011;19094;50.972;3.538;2022-10-30T19:33:25;10.38;;;4.30;;
32705;SDS011;19094;50.972;3.538;2022-10-30T19:36:01;14.75;;;5.13;;
32705;SDS011;19094;50.972;3.538;2022-10-30T19:38:31;8.93;;;4.15;;
32705;SDS011;19094;50.972;3.538;2022-10-30T19:40:57;12.80;;;4.43;;
32705;SDS011;19094;50.972;3.538;2022-10-30T19:43:23;10.35;;;4.88;;
32705;SDS011;19094;50.972;3.538;2022-10-30T19:45:51;7.22;;;4.93;;
32705;SDS011;19094;50.972;3.538;2022-10-30T19:48:19;12.98;;;6.32;;
32705;SDS011;19094;50.972;3.538;2022-10-30T19:50:45;14.57;;;6.93;;
32705;SDS011;19094;50.972;3.538;2022-10-30T19:53:11;12.55;;;7.00;;
32705;SDS011;19094;50.972;3.538;2022-10-30T19:55:39;17.55;;;6.95;;
32705;SDS011;19094;50.972;3.538;2022-10-30T19:58:06;13.70;;;7.82;;
32705;SDS011;19094;50.972;3.538;2022-10-30T20:00:37;11.90;;;7.10;;
32705;SDS011;19094;50.972;3.538;2022-10-30T20:03:05;16.17;;;7.20;;
32705;SDS011;19094;50.972;3.538;2022-10-30T20:05:36;20.10;;;8.02;;
32705;SDS011;19094;50.972;3.538;2022-10-30T20:08:10;16.75;;;7.95;;
32705;SDS011;19094;50.972;3.538;2022-10-30T20:10:42;13.65;;;7.53;;
32705;SDS011;19094;50.972;3.538;2022-10-30T20:13:19;16.77;;;7.95;;
32705;SDS011;19094;50.972;3.538;2022-10-30T20:15:47;14.75;;;7.63;;
32705;SDS011;19094;50.972;3.538;2022-10-30T20:20:46;10.85;;;6.35;;
32705;SDS011;19094;50.972;3.538;2022-10-30T20:23:14;14.70;;;6.53;;
32705;SDS011;19094;50.972;3.538;2022-10-30T20:25:40;8.05;;;5.53;;
32705;SDS011;19094;50.972;3.538;2022-10-30T20:30:56;10.13;;;5.43;;
32705;SDS011;19094;50.972;3.538;2022-10-30T20:33:23;12.45;;;6.78;;
32705;SDS011;19094;50.972;3.538;2022-10-30T20:35:49;10.00;;;4.65;;
32705;SDS011;19094;50.972;3.538;2022-10-30T20:38:17;10.68;;;4.65;;
32705;SDS011;19094;50.972;3.538;2022-10-30T20:40:44;11.95;;;4.53;;
32705;SDS011;19094;50.972;3.538;2022-10-30T20:43:15;11.43;;;4.80;;
32705;SDS011;19094;50.972;3.538;2022-10-30T20:45:42;7.93;;;4.38;;
32705;SDS011;19094;50.972;3.538;2022-10-30T20:48:08;12.32;;;5.93;;
32705;SDS011;19094;50.972;3.538;2022-10-30T20:50:35;15.93;;;6.47;;
32705;SDS011;19094;50.972;3.538;2022-10-30T20:53:01;18.95;;;10.43;;
32705;SDS011;19094;50.972;3.538;2022-10-30T20:55:27;13.50;;;7.78;;
32705;SDS011;19094;50.972;3.538;2022-10-30T20:57:52;14.05;;;7.63;;
32705;SDS011;19094;50.972;3.538;2022-10-30T21:00:18;9.88;;;5.15;;
32705;SDS011;19094;50.972;3.538;2022-10-30T21:02:44;13.80;;;7.03;;
32705;SDS011;19094;50.972;3.538;2022-10-30T21:05:09;16.20;;;9.60;;
32705;SDS011;19094;50.972;3.538;2022-10-30T21:07:36;9.80;;;5.50;;
32705;SDS011;19094;50.972;3.538;2022-10-30T21:10:02;7.68;;;4.75;;
32705;SDS011;19094;50.972;3.538;2022-10-30T21:12:29;6.95;;;4.22;;
32705;SDS011;19094;50.972;3.538;2022-10-30T21:14:55;10.82;;;5.05;;
32705;SDS011;19094;50.972;3.538;2022-10-30T21:17:20;8.20;;;4.93;;
32705;SDS011;19094;50.972;3.538;2022-10-30T21:19:46;11.73;;;4.47;;
32705;SDS011;19094;50.972;3.538;2022-10-30T21:22:12;17.50;;;4.32;;
32705;SDS011;19094;50.972;3.538;2022-10-30T21:24:37;7.97;;;4.93;;
32705;SDS011;19094;50.972;3.538;2022-10-30T21:27:03;8.68;;;6.03;;
32705;SDS011;19094;50.972;3.538;2022-10-30T21:29:30;13.00;;;5.30;;
32705;SDS011;19094;50.972;3.538;2022-10-30T21:31:56;15.57;;;9.98;;
32705;SDS011;19094;50.972;3.538;2022-10-30T21:34:21;17.27;;;10.07;;
32705;SDS011;19094;50.972;3.538;2022-10-30T21:36:47;10.93;;;6.00;;
32705;SDS011;19094;50.972;3.538;2022-10-30T21:39:13;8.73;;;4.10;;
32705;SDS011;19094;50.972;3.538;2022-10-30T21:41:38;6.30;;;4.32;;
32705;SDS011;19094;50.972;3.538;2022-10-30T21:44:05;12.68;;;5.25;;
32705;SDS011;19094;50.972;3.538;2022-10-30T21:46:31;6.13;;;3.85;;
32705;SDS011;19094;50.972;3.538;2022-10-30T21:49:03;7.03;;;4.43;;
32705;SDS011;19094;50.972;3.538;2022-10-30T21:51:30;10.85;;;4.40;;
32705;SDS011;19094;50.972;3.538;2022-10-30T21:53:57;4.63;;;3.10;;
32705;SDS011;19094;50.972;3.538;2022-10-30T21:56:24;8.63;;;3.60;;
32705;SDS011;19094;50.972;3.538;2022-10-30T21:58:51;9.48;;;3.30;;
32705;SDS011;19094;50.972;3.538;2022-10-30T22:01:20;6.55;;;3.38;;
32705;SDS011;19094;50.972;3.538;2022-10-30T22:03:47;6.40;;;2.60;;
32705;SDS011;19094;50.972;3.538;2022-10-30T22:06:14;7.47;;;3.40;;
32705;SDS011;19094;50.972;3.538;2022-10-30T22:08:43;8.35;;;3.95;;
32705;SDS011;19094;50.972;3.538;2022-10-30T22:11:10;8.98;;;6.03;;
32705;SDS011;19094;50.972;3.538;2022-10-30T22:13:37;10.10;;;4.53;;
32705;SDS011;19094;50.972;3.538;2022-10-30T22:16:04;6.78;;;4.10;;
32705;SDS011;19094;50.972;3.538;2022-10-30T22:18:31;9.52;;;4.18;;
32705;SDS011;19094;50.972;3.538;2022-10-30T22:20:58;8.60;;;3.40;;
32705;SDS011;19094;50.972;3.538;2022-10-30T22:23:26;6.47;;;2.60;;
32705;SDS011;19094;50.972;3.538;2022-10-30T22:25:53;5.88;;;2.72;;
32705;SDS011;19094;50.972;3.538;2022-10-30T22:28:27;7.28;;;2.60;;
32705;SDS011;19094;50.972;3.538;2022-10-30T22:30:53;8.23;;;3.10;;
32705;SDS011;19094;50.972;3.538;2022-10-30T22:33:20;6.95;;;3.05;;
32705;SDS011;19094;50.972;3.538;2022-10-30T22:35:46;8.02;;;3.22;;
32705;SDS011;19094;50.972;3.538;2022-10-30T22:38:12;7.85;;;3.13;;
32705;SDS011;19094;50.972;3.538;2022-10-30T22:40:38;11.43;;;3.17;;
32705;SDS011;19094;50.972;3.538;2022-10-30T22:43:04;9.45;;;2.97;;
32705;SDS011;19094;50.972;3.538;2022-10-30T22:45:30;9.98;;;3.25;;
32705;SDS011;19094;50.972;3.538;2022-10-30T22:47:55;5.13;;;2.80;;
32705;SDS011;19094;50.972;3.538;2022-10-30T22:50:21;9.05;;;2.65;;
32705;SDS011;19094;50.972;3.538;2022-10-30T22:52:47;5.20;;;2.50;;
32705;SDS011;19094;50.972;3.538;2022-10-30T22:55:12;5.32;;;2.88;;
32705;SDS011;19094;50.972;3.538;2022-10-30T22:57:38;7.75;;;3.33;;
32705;SDS011;19094;50.972;3.538;2022-10-30T23:00:04;4.97;;;2.53;;
32705;SDS011;19094;50.972;3.538;2022-10-30T23:02:30;5.38;;;2.83;;
32705;SDS011;19094;50.972;3.538;2022-10-30T23:04:56;5.30;;;2.60;;
32705;SDS011;19094;50.972;3.538;2022-10-30T23:07:21;6.65;;;3.05;;
32705;SDS011;19094;50.972;3.538;2022-10-30T23:09:47;6.80;;;2.90;;
32705;SDS011;19094;50.972;3.538;2022-10-30T23:12:13;6.20;;;2.63;;
32705;SDS011;19094;50.972;3.538;2022-10-30T23:14:38;6.65;;;3.30;;
32705;SDS011;19094;50.972;3.538;2022-10-30T23:17:04;5.45;;;2.92;;
32705;SDS011;19094;50.972;3.538;2022-10-30T23:19:30;6.30;;;3.30;;
32705;SDS011;19094;50.972;3.538;2022-10-30T23:21:56;5.53;;;2.97;;
32705;SDS011;19094;50.972;3.538;2022-10-30T23:24:23;7.93;;;3.38;;
32705;SDS011;19094;50.972;3.538;2022-10-30T23:26:50;5.75;;;3.50;;
32705;SDS011;19094;50.972;3.538;2022-10-30T23:29:16;6.72;;;3.08;;
32705;SDS011;19094;50.972;3.538;2022-10-30T23:31:42;6.65;;;3.40;;
32705;SDS011;19094;50.972;3.538;2022-10-30T23:34:12;7.15;;;3.15;;
32705;SDS011;19094;50.972;3.538;2022-10-30T23:36:39;14.75;;;3.92;;
32705;SDS011;19094;50.972;3.538;2022-10-30T23:39:07;6.75;;;3.85;;
32705;SDS011;19094;50.972;3.538;2022-10-30T23:41:34;10.02;;;3.58;;
32705;SDS011;19094;50.972;3.538;2022-10-30T23:44:01;10.23;;;3.80;;
32705;SDS011;19094;50.972;3.538;2022-10-30T23:46:29;6.00;;;3.55;;
32705;SDS011;19094;50.972;3.538;2022-10-30T23:48:55;9.52;;;3.72;;
32705;SDS011;19094;50.972;3.538;2022-10-30T23:51:21;6.53;;;3.75;;
32705;SDS011;19094;50.972;3.538;2022-10-30T23:53:47;11.55;;;3.90;;
32705;SDS011;19094;50.972;3.538;2022-10-30T23:56:13;5.43;;;3.30;;
32705;SDS011;19094;50.972;3.538;2022-10-30T23:58:45;6.43;;;3.65;;
